sensor_id;sensor_type;location;lat;lon;timestamp;temperature;humidity
13856;DHT22;6998;53.608;9.958;2022-09-25T00:01:39;13.50;99.90
13856;DHT22;6998;53.608;9.958;2022-09-25T00:04:07;13.40;99.90
13856;DHT22;6998;53.608;9.958;2022-09-25T00:06:33;13.40;99.90
13856;DHT22;6998;53.608;9.958;2022-09-25T00:09:00;13.30;99.90
13856;DHT22;6998;53.608;9.958;2022-09-25T00:11:29;13.20;99.90
13856;DHT22;6998;53.608;9.958;2022-09-25T00:13:57;13.20;99.90
13856;DHT22;6998;53.608;9.958;2022-09-25T00:16:26;13.10;99.90
13856;DHT22;6998;53.608;9.958;2022-09-25T00:18:54;13.10;99.90
13856;DHT22;6998;53.608;9.958;2022-09-25T00:21:40;13.10;99.90
13856;DHT22;6998;53.608;9.958;2022-09-25T00:24:09;13.10;99.90
13856;DHT22;6998;53.608;9.958;2022-09-25T00:26:38;13.10;99.90
13856;DHT22;6998;53.608;9.958;2022-09-25T00:29:06;13.10;99.90
13856;DHT22;6998;53.608;9.958;2022-09-25T00:31:35;13.20;99.90
13856;DHT22;6998;53.608;9.958;2022-09-25T00:34:03;13.10;99.90
13856;DHT22;6998;53.608;9.958;2022-09-25T00:36:31;13.20;99.90
13856;DHT22;6998;53.608;9.958;2022-09-25T00:38:59;13.20;99.90
13856;DHT22;6998;53.608;9.958;2022-09-25T00:41:27;13.20;99.90
13856;DHT22;6998;53.608;9.958;2022-09-25T00:43:57;13.20;99.90
13856;DHT22;6998;53.608;9.958;2022-09-25T00:46:26;13.20;99.90
13856;DHT22;6998;53.608;9.958;2022-09-25T00:48:57;13.30;99.90
13856;DHT22;6998;53.608;9.958;2022-09-25T00:51:28;13.30;99.90
13856;DHT22;6998;53.608;9.958;2022-09-25T00:53:57;13.30;99.90
13856;DHT22;6998;53.608;9.958;2022-09-25T00:56:28;13.40;99.90
13856;DHT22;6998;53.608;9.958;2022-09-25T00:58:58;13.40;99.90
13856;DHT22;6998;53.608;9.958;2022-09-25T01:01:24;13.40;99.90
13856;DHT22;6998;53.608;9.958;2022-09-25T01:03:51;13.40;99.90
13856;DHT22;6998;53.608;9.958;2022-09-25T01:06:21;13.30;99.90
13856;DHT22;6998;53.608;9.958;2022-09-25T01:08:48;13.30;99.90
13856;DHT22;6998;53.608;9.958;2022-09-25T01:11:15;13.30;99.90
13856;DHT22;6998;53.608;9.958;2022-09-25T01:13:43;13.40;99.90
13856;DHT22;6998;53.608;9.958;2022-09-25T01:16:13;13.30;99.90
13856;DHT22;6998;53.608;9.958;2022-09-25T01:18:56;13.30;99.90
13856;DHT22;6998;53.608;9.958;2022-09-25T01:21:35;13.30;99.90
13856;DHT22;6998;53.608;9.958;2022-09-25T01:27:41;13.30;99.90
13856;DHT22;6998;53.608;9.958;2022-09-25T01:30:13;13.30;99.90
13856;DHT22;6998;53.608;9.958;2022-09-25T01:32:54;13.30;99.90
13856;DHT22;6998;53.608;9.958;2022-09-25T01:35:30;13.20;99.90
13856;DHT22;6998;53.608;9.958;2022-09-25T01:38:05;13.30;99.90
13856;DHT22;6998;53.608;9.958;2022-09-25T01:40:34;13.30;99.90
13856;DHT22;6998;53.608;9.958;2022-09-25T01:43:10;13.30;99.90
13856;DHT22;6998;53.608;9.958;2022-09-25T01:45:43;13.30;99.90
13856;DHT22;6998;53.608;9.958;2022-09-25T01:48:14;13.20;99.90
13856;DHT22;6998;53.608;9.958;2022-09-25T01:50:45;13.30;99.90
13856;DHT22;6998;53.608;9.958;2022-09-25T01:53:17;13.30;99.90
13856;DHT22;6998;53.608;9.958;2022-09-25T01:55:47;13.30;99.90
13856;DHT22;6998;53.608;9.958;2022-09-25T01:58:18;13.30;99.90
13856;DHT22;6998;53.608;9.958;2022-09-25T02:00:52;13.30;99.90
13856;DHT22;6998;53.608;9.958;2022-09-25T02:03:23;13.30;99.90
13856;DHT22;6998;53.608;9.958;2022-09-25T02:05:52;13.30;99.90
13856;DHT22;6998;53.608;9.958;2022-09-25T02:08:23;13.30;99.90
13856;DHT22;6998;53.608;9.958;2022-09-25T02:10:54;13.30;99.90
13856;DHT22;6998;53.608;9.958;2022-09-25T02:13:23;13.30;99.90
13856;DHT22;6998;53.608;9.958;2022-09-25T02:15:55;13.30;99.90
13856;DHT22;6998;53.608;9.958;2022-09-25T02:18:23;13.30;99.90
13856;DHT22;6998;53.608;9.958;2022-09-25T02:21:13;13.30;99.90
13856;DHT22;6998;53.608;9.958;2022-09-25T02:23:48;13.30;99.90
13856;DHT22;6998;53.608;9.958;2022-09-25T02:26:23;13.30;99.90
13856;DHT22;6998;53.608;9.958;2022-09-25T02:28:51;13.30;99.90
13856;DHT22;6998;53.608;9.958;2022-09-25T02:31:22;13.30;99.90
13856;DHT22;6998;53.608;9.958;2022-09-25T02:33:50;13.30;99.90
13856;DHT22;6998;53.608;9.958;2022-09-25T02:36:19;13.30;99.90
13856;DHT22;6998;53.608;9.958;2022-09-25T02:38:48;13.30;99.90
13856;DHT22;6998;53.608;9.958;2022-09-25T02:41:25;13.30;99.90
13856;DHT22;6998;53.608;9.958;2022-09-25T02:44:05;13.30;99.90
13856;DHT22;6998;53.608;9.958;2022-09-25T02:46:43;13.20;99.90
13856;DHT22;6998;53.608;9.958;2022-09-25T02:49:18;13.30;99.90
13856;DHT22;6998;53.608;9.958;2022-09-25T02:51:53;13.30;99.90
13856;DHT22;6998;53.608;9.958;2022-09-25T02:54:27;13.30;99.90
13856;DHT22;6998;53.608;9.958;2022-09-25T02:57:02;13.30;99.90
13856;DHT22;6998;53.608;9.958;2022-09-25T02:59:34;13.30;99.90
13856;DHT22;6998;53.608;9.958;2022-09-25T03:02:04;13.30;99.90
13856;DHT22;6998;53.608;9.958;2022-09-25T03:04:33;13.30;99.90
13856;DHT22;6998;53.608;9.958;2022-09-25T03:07:01;13.30;99.90
13856;DHT22;6998;53.608;9.958;2022-09-25T03:09:32;13.30;99.90
13856;DHT22;6998;53.608;9.958;2022-09-25T03:12:00;13.30;99.90
13856;DHT22;6998;53.608;9.958;2022-09-25T03:14:28;13.30;99.90
13856;DHT22;6998;53.608;9.958;2022-09-25T03:16:56;13.30;99.90
13856;DHT22;6998;53.608;9.958;2022-09-25T03:19:30;13.30;99.90
13856;DHT22;6998;53.608;9.958;2022-09-25T03:21:57;13.30;99.90
13856;DHT22;6998;53.608;9.958;2022-09-25T03:24:25;13.30;99.90
13856;DHT22;6998;53.608;9.958;2022-09-25T03:26:52;13.30;99.90
13856;DHT22;6998;53.608;9.958;2022-09-25T03:29:19;13.30;99.90
13856;DHT22;6998;53.608;9.958;2022-09-25T03:31:46;13.30;99.90
13856;DHT22;6998;53.608;9.958;2022-09-25T03:34:15;13.30;99.90
13856;DHT22;6998;53.608;9.958;2022-09-25T03:36:45;13.30;99.90
13856;DHT22;6998;53.608;9.958;2022-09-25T03:39:13;13.30;99.90
13856;DHT22;6998;53.608;9.958;2022-09-25T03:41:42;13.30;99.90
13856;DHT22;6998;53.608;9.958;2022-09-25T03:44:09;13.30;99.90
13856;DHT22;6998;53.608;9.958;2022-09-25T03:46:36;13.40;99.90
13856;DHT22;6998;53.608;9.958;2022-09-25T03:49:03;13.30;99.90
13856;DHT22;6998;53.608;9.958;2022-09-25T03:51:30;13.30;99.90
13856;DHT22;6998;53.608;9.958;2022-09-25T03:53:59;13.30;99.90
13856;DHT22;6998;53.608;9.958;2022-09-25T03:56:27;13.30;99.90
13856;DHT22;6998;53.608;9.958;2022-09-25T03:58:55;13.30;99.90
13856;DHT22;6998;53.608;9.958;2022-09-25T04:01:22;13.30;99.90
13856;DHT22;6998;53.608;9.958;2022-09-25T04:03:50;13.30;99.90
13856;DHT22;6998;53.608;9.958;2022-09-25T04:06:19;13.30;99.90
13856;DHT22;6998;53.608;9.958;2022-09-25T04:08:47;13.30;99.90
13856;DHT22;6998;53.608;9.958;2022-09-25T04:11:16;13.20;99.90
13856;DHT22;6998;53.608;9.958;2022-09-25T04:13:43;13.30;99.90
13856;DHT22;6998;53.608;9.958;2022-09-25T04:16:11;13.30;99.90
13856;DHT22;6998;53.608;9.958;2022-09-25T04:18:38;13.20;99.90
13856;DHT22;6998;53.608;9.958;2022-09-25T04:21:08;13.30;99.90
13856;DHT22;6998;53.608;9.958;2022-09-25T04:23:36;13.30;99.90
13856;DHT22;6998;53.608;9.958;2022-09-25T04:26:04;13.20;99.90
13856;DHT22;6998;53.608;9.958;2022-09-25T04:28:33;13.20;99.90
13856;DHT22;6998;53.608;9.958;2022-09-25T04:31:00;13.30;99.90
13856;DHT22;6998;53.608;9.958;2022-09-25T04:33:28;13.30;99.90
13856;DHT22;6998;53.608;9.958;2022-09-25T04:36:11;13.20;99.90
13856;DHT22;6998;53.608;9.958;2022-09-25T04:38:39;13.20;99.90
13856;DHT22;6998;53.608;9.958;2022-09-25T04:41:05;13.20;99.90
13856;DHT22;6998;53.608;9.958;2022-09-25T04:43:34;13.20;99.90
13856;DHT22;6998;53.608;9.958;2022-09-25T04:46:01;13.20;99.90
13856;DHT22;6998;53.608;9.958;2022-09-25T04:48:28;13.30;99.90
13856;DHT22;6998;53.608;9.958;2022-09-25T04:50:55;13.20;99.90
13856;DHT22;6998;53.608;9.958;2022-09-25T04:53:23;13.20;99.90
13856;DHT22;6998;53.608;9.958;2022-09-25T04:55:50;13.20;99.90
13856;DHT22;6998;53.608;9.958;2022-09-25T04:58:18;13.20;99.90
13856;DHT22;6998;53.608;9.958;2022-09-25T05:00:46;13.20;99.90
13856;DHT22;6998;53.608;9.958;2022-09-25T05:03:13;13.20;99.90
13856;DHT22;6998;53.608;9.958;2022-09-25T05:05:40;13.20;99.90
13856;DHT22;6998;53.608;9.958;2022-09-25T05:08:08;13.10;99.90
13856;DHT22;6998;53.608;9.958;2022-09-25T05:10:34;13.10;99.90
13856;DHT22;6998;53.608;9.958;2022-09-25T05:13:04;13.10;99.90
13856;DHT22;6998;53.608;9.958;2022-09-25T05:15:31;13.10;99.90
13856;DHT22;6998;53.608;9.958;2022-09-25T05:18:00;13.10;99.90
13856;DHT22;6998;53.608;9.958;2022-09-25T05:20:27;13.10;99.90
13856;DHT22;6998;53.608;9.958;2022-09-25T05:22:54;13.20;99.90
13856;DHT22;6998;53.608;9.958;2022-09-25T05:25:21;13.20;99.90
13856;DHT22;6998;53.608;9.958;2022-09-25T05:27:50;13.20;99.90
13856;DHT22;6998;53.608;9.958;2022-09-25T05:30:17;13.20;99.90
13856;DHT22;6998;53.608;9.958;2022-09-25T05:32:46;13.20;99.90
13856;DHT22;6998;53.608;9.958;2022-09-25T05:35:16;13.20;99.90
13856;DHT22;6998;53.608;9.958;2022-09-25T05:37:43;13.20;99.90
13856;DHT22;6998;53.608;9.958;2022-09-25T05:40:10;13.30;99.90
13856;DHT22;6998;53.608;9.958;2022-09-25T05:42:36;13.20;99.90
13856;DHT22;6998;53.608;9.958;2022-09-25T05:45:04;13.30;99.90
13856;DHT22;6998;53.608;9.958;2022-09-25T05:47:31;13.20;99.90
13856;DHT22;6998;53.608;9.958;2022-09-25T05:49:58;13.30;99.90
13856;DHT22;6998;53.608;9.958;2022-09-25T05:52:26;13.30;99.90
13856;DHT22;6998;53.608;9.958;2022-09-25T05:54:52;13.30;99.90
13856;DHT22;6998;53.608;9.958;2022-09-25T05:57:19;13.40;99.90
13856;DHT22;6998;53.608;9.958;2022-09-25T05:59:46;13.40;99.90
13856;DHT22;6998;53.608;9.958;2022-09-25T06:02:14;13.40;99.90
13856;DHT22;6998;53.608;9.958;2022-09-25T06:04:41;13.40;99.90
13856;DHT22;6998;53.608;9.958;2022-09-25T06:07:08;13.40;99.90
13856;DHT22;6998;53.608;9.958;2022-09-25T06:09:36;13.40;99.90
13856;DHT22;6998;53.608;9.958;2022-09-25T06:12:03;13.40;99.90
13856;DHT22;6998;53.608;9.958;2022-09-25T06:14:31;13.50;99.90
13856;DHT22;6998;53.608;9.958;2022-09-25T06:16:59;13.50;99.90
13856;DHT22;6998;53.608;9.958;2022-09-25T06:19:26;13.60;99.90
13856;DHT22;6998;53.608;9.958;2022-09-25T06:21:54;13.50;99.90
13856;DHT22;6998;53.608;9.958;2022-09-25T06:24:22;13.50;99.90
13856;DHT22;6998;53.608;9.958;2022-09-25T06:26:50;13.50;99.90
13856;DHT22;6998;53.608;9.958;2022-09-25T06:29:17;13.60;99.90
13856;DHT22;6998;53.608;9.958;2022-09-25T06:31:43;13.60;99.90
13856;DHT22;6998;53.608;9.958;2022-09-25T06:34:10;13.60;99.90
13856;DHT22;6998;53.608;9.958;2022-09-25T06:36:37;13.60;99.90
13856;DHT22;6998;53.608;9.958;2022-09-25T06:39:06;13.60;99.90
13856;DHT22;6998;53.608;9.958;2022-09-25T06:41:33;13.60;99.90
13856;DHT22;6998;53.608;9.958;2022-09-25T06:44:02;13.70;99.90
13856;DHT22;6998;53.608;9.958;2022-09-25T06:46:28;13.80;99.90
13856;DHT22;6998;53.608;9.958;2022-09-25T06:48:55;13.70;99.90
13856;DHT22;6998;53.608;9.958;2022-09-25T06:51:24;13.80;99.90
13856;DHT22;6998;53.608;9.958;2022-09-25T06:53:52;13.80;99.90
13856;DHT22;6998;53.608;9.958;2022-09-25T06:56:19;13.80;99.90
13856;DHT22;6998;53.608;9.958;2022-09-25T06:58:46;13.80;99.90
13856;DHT22;6998;53.608;9.958;2022-09-25T07:01:15;13.80;99.90
13856;DHT22;6998;53.608;9.958;2022-09-25T07:03:42;13.80;99.90
13856;DHT22;6998;53.608;9.958;2022-09-25T07:06:12;13.80;99.90
13856;DHT22;6998;53.608;9.958;2022-09-25T07:08:39;13.90;99.90
13856;DHT22;6998;53.608;9.958;2022-09-25T07:11:11;13.90;99.90
13856;DHT22;6998;53.608;9.958;2022-09-25T07:13:37;13.90;99.90
13856;DHT22;6998;53.608;9.958;2022-09-25T07:16:06;13.90;99.90
13856;DHT22;6998;53.608;9.958;2022-09-25T07:18:35;14.00;99.90
13856;DHT22;6998;53.608;9.958;2022-09-25T07:21:05;14.00;99.90
13856;DHT22;6998;53.608;9.958;2022-09-25T07:23:32;14.00;99.90
13856;DHT22;6998;53.608;9.958;2022-09-25T07:26:04;14.00;99.90
13856;DHT22;6998;53.608;9.958;2022-09-25T07:28:31;14.00;99.90
13856;DHT22;6998;53.608;9.958;2022-09-25T07:30:57;14.00;99.90
13856;DHT22;6998;53.608;9.958;2022-09-25T07:33:24;14.00;99.90
13856;DHT22;6998;53.608;9.958;2022-09-25T07:35:52;14.00;99.90
13856;DHT22;6998;53.608;9.958;2022-09-25T07:38:19;13.90;99.90
13856;DHT22;6998;53.608;9.958;2022-09-25T07:40:47;14.00;99.90
13856;DHT22;6998;53.608;9.958;2022-09-25T07:43:14;13.90;99.90
13856;DHT22;6998;53.608;9.958;2022-09-25T07:45:48;13.90;99.90
13856;DHT22;6998;53.608;9.958;2022-09-25T07:48:18;13.80;99.90
13856;DHT22;6998;53.608;9.958;2022-09-25T07:50:48;13.70;99.90
13856;DHT22;6998;53.608;9.958;2022-09-25T07:53:16;13.70;99.90
13856;DHT22;6998;53.608;9.958;2022-09-25T07:55:43;13.80;99.90
13856;DHT22;6998;53.608;9.958;2022-09-25T07:58:10;13.80;99.90
13856;DHT22;6998;53.608;9.958;2022-09-25T08:00:37;13.80;99.90
13856;DHT22;6998;53.608;9.958;2022-09-25T08:03:05;13.80;99.90
13856;DHT22;6998;53.608;9.958;2022-09-25T08:05:33;13.90;99.90
13856;DHT22;6998;53.608;9.958;2022-09-25T08:08:00;13.90;99.90
13856;DHT22;6998;53.608;9.958;2022-09-25T08:10:28;13.90;99.90
13856;DHT22;6998;53.608;9.958;2022-09-25T08:12:56;13.90;99.90
13856;DHT22;6998;53.608;9.958;2022-09-25T08:15:23;13.90;99.90
13856;DHT22;6998;53.608;9.958;2022-09-25T08:17:50;13.80;99.90
13856;DHT22;6998;53.608;9.958;2022-09-25T08:20:17;13.80;99.90
13856;DHT22;6998;53.608;9.958;2022-09-25T08:22:44;13.90;99.90
13856;DHT22;6998;53.608;9.958;2022-09-25T08:25:12;13.90;99.90
13856;DHT22;6998;53.608;9.958;2022-09-25T08:27:40;13.90;99.90
13856;DHT22;6998;53.608;9.958;2022-09-25T08:30:09;13.90;99.90
13856;DHT22;6998;53.608;9.958;2022-09-25T08:32:37;14.00;99.90
13856;DHT22;6998;53.608;9.958;2022-09-25T08:35:04;13.90;99.90
13856;DHT22;6998;53.608;9.958;2022-09-25T08:37:31;13.90;99.90
13856;DHT22;6998;53.608;9.958;2022-09-25T08:39:57;13.90;99.90
13856;DHT22;6998;53.608;9.958;2022-09-25T08:42:29;13.90;99.90
13856;DHT22;6998;53.608;9.958;2022-09-25T08:45:01;13.90;99.90
13856;DHT22;6998;53.608;9.958;2022-09-25T08:47:46;13.80;99.90
13856;DHT22;6998;53.608;9.958;2022-09-25T08:50:32;13.80;99.90
13856;DHT22;6998;53.608;9.958;2022-09-25T08:53:04;13.80;99.90
13856;DHT22;6998;53.608;9.958;2022-09-25T08:55:35;13.70;99.90
13856;DHT22;6998;53.608;9.958;2022-09-25T08:58:23;13.70;99.90
13856;DHT22;6998;53.608;9.958;2022-09-25T09:00:54;13.70;99.90
13856;DHT22;6998;53.608;9.958;2022-09-25T09:03:24;13.70;99.90
13856;DHT22;6998;53.608;9.958;2022-09-25T09:06:00;13.70;99.90
13856;DHT22;6998;53.608;9.958;2022-09-25T09:08:30;13.80;99.90
13856;DHT22;6998;53.608;9.958;2022-09-25T09:11:02;13.70;99.90
13856;DHT22;6998;53.608;9.958;2022-09-25T09:13:34;13.70;99.90
13856;DHT22;6998;53.608;9.958;2022-09-25T09:16:06;13.70;99.90
13856;DHT22;6998;53.608;9.958;2022-09-25T09:18:37;13.70;99.90
13856;DHT22;6998;53.608;9.958;2022-09-25T09:21:10;13.80;99.90
13856;DHT22;6998;53.608;9.958;2022-09-25T09:23:46;13.80;99.90
13856;DHT22;6998;53.608;9.958;2022-09-25T09:26:16;13.80;99.90
13856;DHT22;6998;53.608;9.958;2022-09-25T09:28:56;13.90;99.90
13856;DHT22;6998;53.608;9.958;2022-09-25T09:31:35;14.00;99.90
13856;DHT22;6998;53.608;9.958;2022-09-25T09:34:21;13.90;99.90
13856;DHT22;6998;53.608;9.958;2022-09-25T09:36:56;14.00;99.90
13856;DHT22;6998;53.608;9.958;2022-09-25T09:39:30;14.00;99.90
13856;DHT22;6998;53.608;9.958;2022-09-25T09:42:06;14.10;99.90
13856;DHT22;6998;53.608;9.958;2022-09-25T09:44:49;14.10;99.90
13856;DHT22;6998;53.608;9.958;2022-09-25T09:47:33;14.20;99.90
13856;DHT22;6998;53.608;9.958;2022-09-25T09:50:24;14.10;99.90
13856;DHT22;6998;53.608;9.958;2022-09-25T09:52:57;14.10;99.90
13856;DHT22;6998;53.608;9.958;2022-09-25T09:55:32;14.00;99.90
13856;DHT22;6998;53.608;9.958;2022-09-25T09:58:04;14.10;99.90
13856;DHT22;6998;53.608;9.958;2022-09-25T10:00:34;14.00;99.90
13856;DHT22;6998;53.608;9.958;2022-09-25T10:03:04;14.10;99.90
13856;DHT22;6998;53.608;9.958;2022-09-25T10:05:38;14.20;99.90
13856;DHT22;6998;53.608;9.958;2022-09-25T10:08:08;14.20;99.90
13856;DHT22;6998;53.608;9.958;2022-09-25T10:10:36;14.20;99.90
13856;DHT22;6998;53.608;9.958;2022-09-25T10:13:07;14.20;99.90
13856;DHT22;6998;53.608;9.958;2022-09-25T10:15:40;14.20;99.90
13856;DHT22;6998;53.608;9.958;2022-09-25T10:18:10;14.20;99.90
13856;DHT22;6998;53.608;9.958;2022-09-25T10:20:41;14.30;99.90
13856;DHT22;6998;53.608;9.958;2022-09-25T10:23:29;14.30;99.90
13856;DHT22;6998;53.608;9.958;2022-09-25T10:25:57;14.30;99.90
13856;DHT22;6998;53.608;9.958;2022-09-25T10:28:29;14.30;99.90
13856;DHT22;6998;53.608;9.958;2022-09-25T10:30:57;14.40;99.90
13856;DHT22;6998;53.608;9.958;2022-09-25T10:33:28;14.30;99.90
13856;DHT22;6998;53.608;9.958;2022-09-25T10:35:56;14.30;99.90
13856;DHT22;6998;53.608;9.958;2022-09-25T10:38:31;14.40;99.90
13856;DHT22;6998;53.608;9.958;2022-09-25T10:41:01;14.40;99.90
13856;DHT22;6998;53.608;9.958;2022-09-25T10:43:28;14.40;99.90
13856;DHT22;6998;53.608;9.958;2022-09-25T10:46:11;14.50;99.90
13856;DHT22;6998;53.608;9.958;2022-09-25T10:48:41;14.60;99.90
13856;DHT22;6998;53.608;9.958;2022-09-25T10:51:26;14.60;99.90
13856;DHT22;6998;53.608;9.958;2022-09-25T10:54:09;14.60;99.90
13856;DHT22;6998;53.608;9.958;2022-09-25T10:56:36;14.70;99.90
13856;DHT22;6998;53.608;9.958;2022-09-25T10:59:12;14.60;99.90
13856;DHT22;6998;53.608;9.958;2022-09-25T11:01:41;14.50;99.90
13856;DHT22;6998;53.608;9.958;2022-09-25T11:04:15;14.50;99.90
13856;DHT22;6998;53.608;9.958;2022-09-25T11:06:45;14.50;99.90
13856;DHT22;6998;53.608;9.958;2022-09-25T11:09:15;14.40;99.90
13856;DHT22;6998;53.608;9.958;2022-09-25T11:11:43;14.40;99.90
13856;DHT22;6998;53.608;9.958;2022-09-25T11:14:20;14.40;99.90
13856;DHT22;6998;53.608;9.958;2022-09-25T11:16:51;14.50;99.90
13856;DHT22;6998;53.608;9.958;2022-09-25T11:19:25;14.40;99.90
13856;DHT22;6998;53.608;9.958;2022-09-25T11:22:05;14.50;99.90
13856;DHT22;6998;53.608;9.958;2022-09-25T11:24:51;14.50;99.90
13856;DHT22;6998;53.608;9.958;2022-09-25T11:27:22;14.40;99.90
13856;DHT22;6998;53.608;9.958;2022-09-25T11:29:59;14.40;99.90
13856;DHT22;6998;53.608;9.958;2022-09-25T11:32:36;14.40;99.90
13856;DHT22;6998;53.608;9.958;2022-09-25T11:35:21;14.50;99.90
13856;DHT22;6998;53.608;9.958;2022-09-25T11:38:00;14.50;99.90
13856;DHT22;6998;53.608;9.958;2022-09-25T11:40:41;14.40;99.90
13856;DHT22;6998;53.608;9.958;2022-09-25T11:43:44;14.40;99.90
13856;DHT22;6998;53.608;9.958;2022-09-25T11:46:20;14.20;99.90
13856;DHT22;6998;53.608;9.958;2022-09-25T11:48:59;14.30;99.90
13856;DHT22;6998;53.608;9.958;2022-09-25T11:51:52;14.30;99.90
13856;DHT22;6998;53.608;9.958;2022-09-25T11:54:31;14.40;99.90
13856;DHT22;6998;53.608;9.958;2022-09-25T11:57:06;14.40;99.90
13856;DHT22;6998;53.608;9.958;2022-09-25T11:59:47;14.50;99.90
13856;DHT22;6998;53.608;9.958;2022-09-25T12:02:43;14.60;99.90
13856;DHT22;6998;53.608;9.958;2022-09-25T12:05:28;14.70;99.90
13856;DHT22;6998;53.608;9.958;2022-09-25T12:08:14;14.70;99.90
13856;DHT22;6998;53.608;9.958;2022-09-25T12:10:51;14.70;99.90
13856;DHT22;6998;53.608;9.958;2022-09-25T12:13:23;14.80;99.90
13856;DHT22;6998;53.608;9.958;2022-09-25T12:16:04;14.80;99.90
13856;DHT22;6998;53.608;9.958;2022-09-25T12:18:47;14.80;99.90
13856;DHT22;6998;53.608;9.958;2022-09-25T12:21:19;14.70;99.90
13856;DHT22;6998;53.608;9.958;2022-09-25T12:23:55;14.70;99.90
13856;DHT22;6998;53.608;9.958;2022-09-25T12:26:31;14.60;99.90
13856;DHT22;6998;53.608;9.958;2022-09-25T12:29:12;14.60;99.90
13856;DHT22;6998;53.608;9.958;2022-09-25T12:31:48;14.50;99.90
13856;DHT22;6998;53.608;9.958;2022-09-25T12:34:28;14.50;99.90
13856;DHT22;6998;53.608;9.958;2022-09-25T12:37:07;14.50;99.90
13856;DHT22;6998;53.608;9.958;2022-09-25T12:39:42;14.60;99.90
13856;DHT22;6998;53.608;9.958;2022-09-25T12:42:12;14.50;99.90
13856;DHT22;6998;53.608;9.958;2022-09-25T12:44:46;14.50;99.90
13856;DHT22;6998;53.608;9.958;2022-09-25T12:47:19;14.50;99.90
13856;DHT22;6998;53.608;9.958;2022-09-25T12:49:53;14.60;99.90
13856;DHT22;6998;53.608;9.958;2022-09-25T12:52:25;14.80;99.90
13856;DHT22;6998;53.608;9.958;2022-09-25T12:54:58;14.90;99.90
13856;DHT22;6998;53.608;9.958;2022-09-25T12:57:31;15.10;99.90
13856;DHT22;6998;53.608;9.958;2022-09-25T13:00:04;15.20;99.90
13856;DHT22;6998;53.608;9.958;2022-09-25T13:02:37;15.30;99.90
13856;DHT22;6998;53.608;9.958;2022-09-25T13:05:11;15.40;99.90
13856;DHT22;6998;53.608;9.958;2022-09-25T13:07:41;15.40;99.90
13856;DHT22;6998;53.608;9.958;2022-09-25T13:10:22;15.60;99.90
13856;DHT22;6998;53.608;9.958;2022-09-25T13:12:54;15.60;99.90
13856;DHT22;6998;53.608;9.958;2022-09-25T13:15:24;15.70;99.90
13856;DHT22;6998;53.608;9.958;2022-09-25T13:17:52;15.70;99.90
13856;DHT22;6998;53.608;9.958;2022-09-25T13:20:48;15.70;99.90
13856;DHT22;6998;53.608;9.958;2022-09-25T13:23:28;15.70;99.90
13856;DHT22;6998;53.608;9.958;2022-09-25T13:25:59;15.70;99.90
13856;DHT22;6998;53.608;9.958;2022-09-25T13:28:29;15.70;99.90
13856;DHT22;6998;53.608;9.958;2022-09-25T13:30:59;15.60;99.90
13856;DHT22;6998;53.608;9.958;2022-09-25T13:33:27;15.60;99.90
13856;DHT22;6998;53.608;9.958;2022-09-25T13:36:09;15.60;99.90
13856;DHT22;6998;53.608;9.958;2022-09-25T13:38:41;15.50;99.90
13856;DHT22;6998;53.608;9.958;2022-09-25T13:41:29;15.50;99.90
13856;DHT22;6998;53.608;9.958;2022-09-25T13:47:31;15.60;99.90
13856;DHT22;6998;53.608;9.958;2022-09-25T13:50:15;15.50;99.90
13856;DHT22;6998;53.608;9.958;2022-09-25T13:53:10;15.50;99.90
13856;DHT22;6998;53.608;9.958;2022-09-25T13:59:23;15.40;99.90
13856;DHT22;6998;53.608;9.958;2022-09-25T14:01:53;15.40;99.90
13856;DHT22;6998;53.608;9.958;2022-09-25T14:04:27;15.50;99.90
13856;DHT22;6998;53.608;9.958;2022-09-25T14:06:56;15.40;99.90
13856;DHT22;6998;53.608;9.958;2022-09-25T14:09:30;15.40;99.90
13856;DHT22;6998;53.608;9.958;2022-09-25T14:12:05;15.50;99.90
13856;DHT22;6998;53.608;9.958;2022-09-25T14:14:41;15.40;99.90
13856;DHT22;6998;53.608;9.958;2022-09-25T14:17:13;15.40;99.90
13856;DHT22;6998;53.608;9.958;2022-09-25T14:19:43;15.40;99.90
13856;DHT22;6998;53.608;9.958;2022-09-25T14:22:18;15.40;99.90
13856;DHT22;6998;53.608;9.958;2022-09-25T14:24:46;15.40;99.90
13856;DHT22;6998;53.608;9.958;2022-09-25T14:27:20;15.40;99.90
13856;DHT22;6998;53.608;9.958;2022-09-25T14:29:49;15.40;99.90
13856;DHT22;6998;53.608;9.958;2022-09-25T14:32:27;15.30;99.90
13856;DHT22;6998;53.608;9.958;2022-09-25T14:35:11;15.30;99.90
13856;DHT22;6998;53.608;9.958;2022-09-25T14:37:57;15.30;99.90
13856;DHT22;6998;53.608;9.958;2022-09-25T14:40:34;15.30;99.90
13856;DHT22;6998;53.608;9.958;2022-09-25T14:45:58;15.30;99.90
13856;DHT22;6998;53.608;9.958;2022-09-25T14:48:30;15.40;99.90
13856;DHT22;6998;53.608;9.958;2022-09-25T14:51:01;15.40;99.90
13856;DHT22;6998;53.608;9.958;2022-09-25T14:53:32;15.50;99.90
13856;DHT22;6998;53.608;9.958;2022-09-25T14:56:02;15.60;99.90
13856;DHT22;6998;53.608;9.958;2022-09-25T14:58:34;15.60;99.90
13856;DHT22;6998;53.608;9.958;2022-09-25T15:01:12;15.70;99.90
13856;DHT22;6998;53.608;9.958;2022-09-25T15:03:42;15.80;99.90
13856;DHT22;6998;53.608;9.958;2022-09-25T15:06:11;15.80;99.90
13856;DHT22;6998;53.608;9.958;2022-09-25T15:08:40;15.90;99.90
13856;DHT22;6998;53.608;9.958;2022-09-25T15:11:12;15.90;99.90
13856;DHT22;6998;53.608;9.958;2022-09-25T15:13:39;15.90;99.90
13856;DHT22;6998;53.608;9.958;2022-09-25T15:16:13;15.90;99.90
13856;DHT22;6998;53.608;9.958;2022-09-25T15:18:59;15.90;99.90
13856;DHT22;6998;53.608;9.958;2022-09-25T15:21:29;15.90;99.90
13856;DHT22;6998;53.608;9.958;2022-09-25T15:23:59;15.90;99.90
13856;DHT22;6998;53.608;9.958;2022-09-25T15:26:27;15.90;99.90
13856;DHT22;6998;53.608;9.958;2022-09-25T15:28:55;15.90;99.90
13856;DHT22;6998;53.608;9.958;2022-09-25T15:31:23;15.90;99.90
13856;DHT22;6998;53.608;9.958;2022-09-25T15:34:01;15.90;99.90
13856;DHT22;6998;53.608;9.958;2022-09-25T15:36:28;15.90;99.90
13856;DHT22;6998;53.608;9.958;2022-09-25T15:38:57;15.90;99.90
13856;DHT22;6998;53.608;9.958;2022-09-25T15:41:24;15.90;99.90
13856;DHT22;6998;53.608;9.958;2022-09-25T15:44:10;15.80;99.90
13856;DHT22;6998;53.608;9.958;2022-09-25T15:46:41;15.80;99.90
13856;DHT22;6998;53.608;9.958;2022-09-25T15:49:13;15.70;99.90
13856;DHT22;6998;53.608;9.958;2022-09-25T15:51:44;15.60;99.90
13856;DHT22;6998;53.608;9.958;2022-09-25T15:57:07;15.50;99.90
13856;DHT22;6998;53.608;9.958;2022-09-25T15:59:39;15.40;99.90
13856;DHT22;6998;53.608;9.958;2022-09-25T16:02:23;15.50;99.90
13856;DHT22;6998;53.608;9.958;2022-09-25T16:05:09;15.40;99.90
13856;DHT22;6998;53.608;9.958;2022-09-25T16:07:37;15.50;99.90
13856;DHT22;6998;53.608;9.958;2022-09-25T16:10:27;15.50;99.90
13856;DHT22;6998;53.608;9.958;2022-09-25T16:12:54;15.50;99.90
13856;DHT22;6998;53.608;9.958;2022-09-25T16:15:48;15.50;99.90
13856;DHT22;6998;53.608;9.958;2022-09-25T16:18:26;15.50;99.90
13856;DHT22;6998;53.608;9.958;2022-09-25T16:20:57;15.40;99.90
13856;DHT22;6998;53.608;9.958;2022-09-25T16:23:32;15.30;99.90
13856;DHT22;6998;53.608;9.958;2022-09-25T16:25:59;15.20;99.90
13856;DHT22;6998;53.608;9.958;2022-09-25T16:28:27;15.10;99.90
13856;DHT22;6998;53.608;9.958;2022-09-25T16:30:59;15.00;99.90